sensor_id;sensor_type;location;lat;lon;timestamp;P1;durP1;ratioP1;P2;durP2;ratioP2
33381;SDS011;21342;48.786;9.166;2022-12-07T00:01:23;8.93;;;8.00;;
33381;SDS011;21342;48.786;9.166;2022-12-07T00:03:52;8.60;;;7.37;;
33381;SDS011;21342;48.786;9.166;2022-12-07T00:06:23;8.63;;;7.73;;
33381;SDS011;21342;48.786;9.166;2022-12-07T00:08:51;9.63;;;7.97;;
33381;SDS011;21342;48.786;9.166;2022-12-07T00:11:19;9.80;;;7.87;;
33381;SDS011;21342;48.786;9.166;2022-12-07T00:16:56;10.67;;;7.73;;
33381;SDS011;21342;48.786;9.166;2022-12-07T00:22:37;7.33;;;6.60;;
33381;SDS011;21342;48.786;9.166;2022-12-07T00:25:05;9.47;;;8.03;;
33381;SDS011;21342;48.786;9.166;2022-12-07T00:27:32;9.03;;;7.97;;
33381;SDS011;21342;48.786;9.166;2022-12-07T00:30:00;11.87;;;8.80;;
33381;SDS011;21342;48.786;9.166;2022-12-07T00:32:27;9.37;;;8.30;;
33381;SDS011;21342;48.786;9.166;2022-12-07T00:34:55;9.37;;;8.20;;
33381;SDS011;21342;48.786;9.166;2022-12-07T00:37:22;9.50;;;8.50;;
33381;SDS011;21342;48.786;9.166;2022-12-07T00:39:51;12.03;;;9.37;;
33381;SDS011;21342;48.786;9.166;2022-12-07T00:42:18;9.37;;;7.87;;
33381;SDS011;21342;48.786;9.166;2022-12-07T00:44:45;10.90;;;9.00;;
33381;SDS011;21342;48.786;9.166;2022-12-07T00:47:13;10.30;;;8.10;;
33381;SDS011;21342;48.786;9.166;2022-12-07T00:49:40;11.77;;;10.03;;
33381;SDS011;21342;48.786;9.166;2022-12-07T00:52:07;12.57;;;11.13;;
33381;SDS011;21342;48.786;9.166;2022-12-07T00:54:35;9.77;;;8.77;;
33381;SDS011;21342;48.786;9.166;2022-12-07T00:57:19;10.37;;;9.13;;
33381;SDS011;21342;48.786;9.166;2022-12-07T00:59:46;10.10;;;8.87;;
33381;SDS011;21342;48.786;9.166;2022-12-07T01:02:14;10.63;;;9.13;;
33381;SDS011;21342;48.786;9.166;2022-12-07T01:04:41;11.23;;;9.23;;
33381;SDS011;21342;48.786;9.166;2022-12-07T01:07:09;10.03;;;9.07;;
33381;SDS011;21342;48.786;9.166;2022-12-07T01:09:36;11.30;;;8.93;;
33381;SDS011;21342;48.786;9.166;2022-12-07T01:12:04;10.60;;;9.50;;
33381;SDS011;21342;48.786;9.166;2022-12-07T01:14:33;10.33;;;9.10;;
33381;SDS011;21342;48.786;9.166;2022-12-07T01:17:00;12.13;;;9.33;;
33381;SDS011;21342;48.786;9.166;2022-12-07T01:19:28;16.00;;;10.00;;
33381;SDS011;21342;48.786;9.166;2022-12-07T01:21:55;11.33;;;10.10;;
33381;SDS011;21342;48.786;9.166;2022-12-07T01:24:22;13.43;;;9.60;;
33381;SDS011;21342;48.786;9.166;2022-12-07T01:26:50;11.83;;;9.13;;
33381;SDS011;21342;48.786;9.166;2022-12-07T01:29:17;11.57;;;9.53;;
33381;SDS011;21342;48.786;9.166;2022-12-07T01:31:47;12.40;;;9.87;;
33381;SDS011;21342;48.786;9.166;2022-12-07T01:34:15;11.10;;;9.93;;
33381;SDS011;21342;48.786;9.166;2022-12-07T01:36:42;10.10;;;9.00;;
33381;SDS011;21342;48.786;9.166;2022-12-07T01:39:10;11.27;;;9.77;;
33381;SDS011;21342;48.786;9.166;2022-12-07T01:41:38;10.27;;;9.23;;
33381;SDS011;21342;48.786;9.166;2022-12-07T01:44:10;10.50;;;9.03;;
33381;SDS011;21342;48.786;9.166;2022-12-07T01:46:43;10.40;;;8.50;;
33381;SDS011;21342;48.786;9.166;2022-12-07T01:49:14;12.03;;;9.80;;
33381;SDS011;21342;48.786;9.166;2022-12-07T01:51:47;11.23;;;10.10;;
33381;SDS011;21342;48.786;9.166;2022-12-07T01:54:18;12.03;;;9.30;;
33381;SDS011;21342;48.786;9.166;2022-12-07T01:56:48;11.40;;;9.83;;
33381;SDS011;21342;48.786;9.166;2022-12-07T01:59:18;11.40;;;9.47;;
33381;SDS011;21342;48.786;9.166;2022-12-07T02:01:49;11.30;;;9.30;;
33381;SDS011;21342;48.786;9.166;2022-12-07T02:04:19;10.80;;;9.43;;
33381;SDS011;21342;48.786;9.166;2022-12-07T02:06:48;18.43;;;10.93;;
33381;SDS011;21342;48.786;9.166;2022-12-07T02:09:16;13.33;;;10.10;;
33381;SDS011;21342;48.786;9.166;2022-12-07T02:11:43;13.67;;;11.47;;
33381;SDS011;21342;48.786;9.166;2022-12-07T02:14:11;10.10;;;8.97;;
33381;SDS011;21342;48.786;9.166;2022-12-07T02:16:42;10.63;;;9.43;;
33381;SDS011;21342;48.786;9.166;2022-12-07T02:19:30;13.20;;;10.33;;
33381;SDS011;21342;48.786;9.166;2022-12-07T02:25:47;13.77;;;9.00;;
33381;SDS011;21342;48.786;9.166;2022-12-07T02:28:26;13.83;;;10.33;;
33381;SDS011;21342;48.786;9.166;2022-12-07T02:30:58;10.03;;;8.73;;
33381;SDS011;21342;48.786;9.166;2022-12-07T02:33:29;10.53;;;9.43;;
33381;SDS011;21342;48.786;9.166;2022-12-07T02:36:02;13.03;;;9.23;;
33381;SDS011;21342;48.786;9.166;2022-12-07T02:38:35;15.00;;;9.20;;
33381;SDS011;21342;48.786;9.166;2022-12-07T02:41:07;12.97;;;10.57;;
33381;SDS011;21342;48.786;9.166;2022-12-07T02:43:39;12.50;;;10.20;;
33381;SDS011;21342;48.786;9.166;2022-12-07T02:46:13;11.70;;;7.80;;
33381;SDS011;21342;48.786;9.166;2022-12-07T02:48:43;9.20;;;8.00;;
33381;SDS011;21342;48.786;9.166;2022-12-07T02:51:12;12.40;;;9.90;;
33381;SDS011;21342;48.786;9.166;2022-12-07T02:53:40;12.30;;;9.67;;
33381;SDS011;21342;48.786;9.166;2022-12-07T02:56:11;11.73;;;10.27;;
33381;SDS011;21342;48.786;9.166;2022-12-07T02:58:49;10.13;;;9.20;;
33381;SDS011;21342;48.786;9.166;2022-12-07T03:01:28;12.53;;;10.70;;
33381;SDS011;21342;48.786;9.166;2022-12-07T03:04:06;9.73;;;8.10;;
33381;SDS011;21342;48.786;9.166;2022-12-07T03:06:48;9.60;;;8.73;;
33381;SDS011;21342;48.786;9.166;2022-12-07T03:09:20;12.37;;;9.50;;
33381;SDS011;21342;48.786;9.166;2022-12-07T03:11:52;10.33;;;9.20;;
33381;SDS011;21342;48.786;9.166;2022-12-07T03:14:29;9.13;;;8.13;;
33381;SDS011;21342;48.786;9.166;2022-12-07T03:17:07;9.33;;;8.43;;
33381;SDS011;21342;48.786;9.166;2022-12-07T03:19:39;10.00;;;8.80;;
33381;SDS011;21342;48.786;9.166;2022-12-07T03:22:10;9.77;;;8.60;;
33381;SDS011;21342;48.786;9.166;2022-12-07T03:24:40;13.50;;;9.20;;
33381;SDS011;21342;48.786;9.166;2022-12-07T03:27:13;9.53;;;8.50;;
33381;SDS011;21342;48.786;9.166;2022-12-07T03:29:47;10.63;;;8.63;;
33381;SDS011;21342;48.786;9.166;2022-12-07T03:32:20;11.63;;;9.40;;
33381;SDS011;21342;48.786;9.166;2022-12-07T03:34:53;12.20;;;10.73;;
33381;SDS011;21342;48.786;9.166;2022-12-07T03:37:28;11.33;;;9.93;;
33381;SDS011;21342;48.786;9.166;2022-12-07T03:40:01;9.67;;;7.87;;
33381;SDS011;21342;48.786;9.166;2022-12-07T03:42:32;10.23;;;8.63;;
33381;SDS011;21342;48.786;9.166;2022-12-07T03:45:00;13.60;;;9.30;;
33381;SDS011;21342;48.786;9.166;2022-12-07T03:47:32;12.63;;;10.37;;
33381;SDS011;21342;48.786;9.166;2022-12-07T03:50:05;11.43;;;8.30;;
33381;SDS011;21342;48.786;9.166;2022-12-07T03:52:38;9.27;;;8.30;;
33381;SDS011;21342;48.786;9.166;2022-12-07T03:55:08;8.43;;;7.53;;
33381;SDS011;21342;48.786;9.166;2022-12-07T03:57:41;10.40;;;8.60;;
33381;SDS011;21342;48.786;9.166;2022-12-07T04:00:11;9.77;;;8.30;;
33381;SDS011;21342;48.786;9.166;2022-12-07T04:02:41;11.73;;;8.27;;
33381;SDS011;21342;48.786;9.166;2022-12-07T04:05:09;10.13;;;8.67;;
33381;SDS011;21342;48.786;9.166;2022-12-07T04:07:37;9.90;;;8.60;;
33381;SDS011;21342;48.786;9.166;2022-12-07T04:10:05;10.67;;;8.97;;
33381;SDS011;21342;48.786;9.166;2022-12-07T04:12:33;10.73;;;8.70;;
33381;SDS011;21342;48.786;9.166;2022-12-07T04:15:01;7.90;;;7.00;;
33381;SDS011;21342;48.786;9.166;2022-12-07T04:17:28;10.10;;;8.80;;
33381;SDS011;21342;48.786;9.166;2022-12-07T04:19:57;11.97;;;8.90;;
33381;SDS011;21342;48.786;9.166;2022-12-07T04:22:25;11.50;;;9.60;;
33381;SDS011;21342;48.786;9.166;2022-12-07T04:24:52;10.20;;;8.37;;
33381;SDS011;21342;48.786;9.166;2022-12-07T04:27:20;8.00;;;7.20;;
33381;SDS011;21342;48.786;9.166;2022-12-07T04:29:47;10.87;;;7.90;;
33381;SDS011;21342;48.786;9.166;2022-12-07T04:32:15;8.43;;;6.80;;
33381;SDS011;21342;48.786;9.166;2022-12-07T04:34:42;8.00;;;7.20;;
33381;SDS011;21342;48.786;9.166;2022-12-07T04:37:11;8.63;;;7.60;;
33381;SDS011;21342;48.786;9.166;2022-12-07T04:39:38;8.67;;;7.77;;
33381;SDS011;21342;48.786;9.166;2022-12-07T04:42:06;8.47;;;6.60;;
33381;SDS011;21342;48.786;9.166;2022-12-07T04:44:33;9.50;;;6.90;;
33381;SDS011;21342;48.786;9.166;2022-12-07T04:47:01;8.67;;;7.20;;
33381;SDS011;21342;48.786;9.166;2022-12-07T04:49:29;7.50;;;6.70;;
33381;SDS011;21342;48.786;9.166;2022-12-07T04:51:56;8.30;;;6.90;;
33381;SDS011;21342;48.786;9.166;2022-12-07T04:54:25;5.70;;;4.83;;
33381;SDS011;21342;48.786;9.166;2022-12-07T04:56:52;7.53;;;6.77;;
33381;SDS011;21342;48.786;9.166;2022-12-07T04:59:20;7.37;;;6.67;;
33381;SDS011;21342;48.786;9.166;2022-12-07T05:01:47;6.50;;;5.87;;
33381;SDS011;21342;48.786;9.166;2022-12-07T05:04:15;6.73;;;6.10;;
33381;SDS011;21342;48.786;9.166;2022-12-07T05:06:43;5.80;;;5.00;;
33381;SDS011;21342;48.786;9.166;2022-12-07T05:09:10;6.60;;;5.90;;
33381;SDS011;21342;48.786;9.166;2022-12-07T05:11:39;7.07;;;5.40;;
33381;SDS011;21342;48.786;9.166;2022-12-07T05:14:08;7.13;;;5.83;;
33381;SDS011;21342;48.786;9.166;2022-12-07T05:16:38;6.40;;;5.50;;
33381;SDS011;21342;48.786;9.166;2022-12-07T05:19:06;7.93;;;5.60;;
33381;SDS011;21342;48.786;9.166;2022-12-07T05:21:33;6.23;;;5.13;;
33381;SDS011;21342;48.786;9.166;2022-12-07T05:24:02;6.07;;;5.47;;
33381;SDS011;21342;48.786;9.166;2022-12-07T05:26:29;5.60;;;5.00;;
33381;SDS011;21342;48.786;9.166;2022-12-07T05:28:59;6.97;;;6.00;;
33381;SDS011;21342;48.786;9.166;2022-12-07T05:31:26;5.40;;;4.87;;
33381;SDS011;21342;48.786;9.166;2022-12-07T05:33:54;5.93;;;5.33;;
33381;SDS011;21342;48.786;9.166;2022-12-07T05:36:22;6.33;;;5.73;;
33381;SDS011;21342;48.786;9.166;2022-12-07T05:38:49;9.73;;;5.80;;
33381;SDS011;21342;48.786;9.166;2022-12-07T05:41:18;7.77;;;6.50;;
33381;SDS011;21342;48.786;9.166;2022-12-07T05:44:04;9.23;;;6.47;;
33381;SDS011;21342;48.786;9.166;2022-12-07T05:46:33;6.73;;;6.03;;
33381;SDS011;21342;48.786;9.166;2022-12-07T05:49:00;9.03;;;8.13;;
33381;SDS011;21342;48.786;9.166;2022-12-07T05:51:28;10.07;;;7.50;;
33381;SDS011;21342;48.786;9.166;2022-12-07T05:53:56;9.30;;;7.47;;
33381;SDS011;21342;48.786;9.166;2022-12-07T05:56:23;10.37;;;7.57;;
33381;SDS011;21342;48.786;9.166;2022-12-07T05:58:51;10.30;;;7.63;;
33381;SDS011;21342;48.786;9.166;2022-12-07T06:01:38;9.17;;;7.20;;
33381;SDS011;21342;48.786;9.166;2022-12-07T06:04:05;11.33;;;7.23;;
33381;SDS011;21342;48.786;9.166;2022-12-07T06:06:32;10.30;;;7.43;;
33381;SDS011;21342;48.786;9.166;2022-12-07T06:09:00;8.40;;;6.70;;
33381;SDS011;21342;48.786;9.166;2022-12-07T06:11:27;8.20;;;6.83;;
33381;SDS011;21342;48.786;9.166;2022-12-07T06:14:12;8.97;;;7.90;;
33381;SDS011;21342;48.786;9.166;2022-12-07T06:16:41;7.97;;;7.00;;
33381;SDS011;21342;48.786;9.166;2022-12-07T06:19:09;8.40;;;6.40;;
33381;SDS011;21342;48.786;9.166;2022-12-07T06:21:36;8.80;;;6.77;;
33381;SDS011;21342;48.786;9.166;2022-12-07T06:24:04;10.10;;;7.20;;
33381;SDS011;21342;48.786;9.166;2022-12-07T06:26:32;8.13;;;6.53;;
33381;SDS011;21342;48.786;9.166;2022-12-07T06:28:59;8.17;;;7.30;;
33381;SDS011;21342;48.786;9.166;2022-12-07T06:31:27;12.40;;;8.03;;
33381;SDS011;21342;48.786;9.166;2022-12-07T06:33:58;10.87;;;7.30;;
33381;SDS011;21342;48.786;9.166;2022-12-07T06:36:26;9.53;;;7.40;;
33381;SDS011;21342;48.786;9.166;2022-12-07T06:38:53;12.97;;;7.60;;
33381;SDS011;21342;48.786;9.166;2022-12-07T06:41:21;8.10;;;7.10;;
33381;SDS011;21342;48.786;9.166;2022-12-07T06:43:49;9.07;;;7.50;;
33381;SDS011;21342;48.786;9.166;2022-12-07T06:46:16;8.83;;;7.40;;
33381;SDS011;21342;48.786;9.166;2022-12-07T06:48:45;8.53;;;7.10;;
33381;SDS011;21342;48.786;9.166;2022-12-07T06:51:14;7.60;;;6.90;;
33381;SDS011;21342;48.786;9.166;2022-12-07T06:53:41;8.23;;;7.30;;
33381;SDS011;21342;48.786;9.166;2022-12-07T06:56:09;12.00;;;6.13;;
33381;SDS011;21342;48.786;9.166;2022-12-07T06:58:36;8.87;;;7.37;;
33381;SDS011;21342;48.786;9.166;2022-12-07T07:01:08;8.90;;;6.70;;
33381;SDS011;21342;48.786;9.166;2022-12-07T07:03:36;7.13;;;6.37;;
33381;SDS011;21342;48.786;9.166;2022-12-07T07:06:03;7.80;;;6.40;;
33381;SDS011;21342;48.786;9.166;2022-12-07T07:08:34;6.60;;;5.90;;
33381;SDS011;21342;48.786;9.166;2022-12-07T07:11:02;6.53;;;5.77;;
33381;SDS011;21342;48.786;9.166;2022-12-07T07:13:30;6.23;;;5.63;;
33381;SDS011;21342;48.786;9.166;2022-12-07T07:15:57;6.67;;;6.07;;
33381;SDS011;21342;48.786;9.166;2022-12-07T07:18:25;6.80;;;5.80;;
33381;SDS011;21342;48.786;9.166;2022-12-07T07:20:53;7.23;;;6.47;;
33381;SDS011;21342;48.786;9.166;2022-12-07T07:23:21;7.30;;;6.10;;
33381;SDS011;21342;48.786;9.166;2022-12-07T07:25:49;6.60;;;6.00;;
33381;SDS011;21342;48.786;9.166;2022-12-07T07:28:17;7.93;;;5.60;;
33381;SDS011;21342;48.786;9.166;2022-12-07T07:30:45;8.53;;;6.00;;
33381;SDS011;21342;48.786;9.166;2022-12-07T07:33:12;6.53;;;5.93;;
33381;SDS011;21342;48.786;9.166;2022-12-07T07:35:40;7.27;;;5.90;;
33381;SDS011;21342;48.786;9.166;2022-12-07T07:38:07;6.17;;;5.57;;
33381;SDS011;21342;48.786;9.166;2022-12-07T07:40:35;7.00;;;5.90;;
33381;SDS011;21342;48.786;9.166;2022-12-07T07:43:04;8.30;;;5.80;;
33381;SDS011;21342;48.786;9.166;2022-12-07T07:45:32;8.37;;;5.30;;
33381;SDS011;21342;48.786;9.166;2022-12-07T07:47:59;6.63;;;5.50;;
33381;SDS011;21342;48.786;9.166;2022-12-07T07:50:27;6.30;;;5.13;;
33381;SDS011;21342;48.786;9.166;2022-12-07T07:52:54;7.53;;;6.53;;
33381;SDS011;21342;48.786;9.166;2022-12-07T07:55:23;6.23;;;5.30;;
33381;SDS011;21342;48.786;9.166;2022-12-07T07:57:51;7.67;;;5.50;;
33381;SDS011;21342;48.786;9.166;2022-12-07T08:00:20;7.67;;;5.60;;
33381;SDS011;21342;48.786;9.166;2022-12-07T08:02:48;6.33;;;5.73;;
33381;SDS011;21342;48.786;9.166;2022-12-07T08:05:17;9.13;;;5.37;;
33381;SDS011;21342;48.786;9.166;2022-12-07T08:07:45;7.60;;;5.20;;
33381;SDS011;21342;48.786;9.166;2022-12-07T08:10:13;9.90;;;6.57;;
33381;SDS011;21342;48.786;9.166;2022-12-07T08:12:41;7.60;;;6.00;;
33381;SDS011;21342;48.786;9.166;2022-12-07T08:15:25;7.23;;;5.53;;
33381;SDS011;21342;48.786;9.166;2022-12-07T08:17:54;11.03;;;5.50;;
33381;SDS011;21342;48.786;9.166;2022-12-07T08:20:21;12.07;;;5.40;;
33381;SDS011;21342;48.786;9.166;2022-12-07T08:22:49;5.83;;;5.13;;
33381;SDS011;21342;48.786;9.166;2022-12-07T08:25:16;5.80;;;4.47;;
33381;SDS011;21342;48.786;9.166;2022-12-07T08:27:44;6.03;;;5.43;;
33381;SDS011;21342;48.786;9.166;2022-12-07T08:30:12;7.00;;;5.50;;
33381;SDS011;21342;48.786;9.166;2022-12-07T08:32:41;7.87;;;5.70;;
33381;SDS011;21342;48.786;9.166;2022-12-07T08:35:10;6.90;;;5.70;;
33381;SDS011;21342;48.786;9.166;2022-12-07T08:37:38;5.10;;;4.27;;
33381;SDS011;21342;48.786;9.166;2022-12-07T08:40:06;6.37;;;5.50;;
33381;SDS011;21342;48.786;9.166;2022-12-07T08:42:35;6.13;;;5.13;;
33381;SDS011;21342;48.786;9.166;2022-12-07T08:45:05;7.83;;;5.27;;
33381;SDS011;21342;48.786;9.166;2022-12-07T08:47:35;5.90;;;4.53;;
33381;SDS011;21342;48.786;9.166;2022-12-07T08:50:08;5.73;;;5.23;;
33381;SDS011;21342;48.786;9.166;2022-12-07T08:52:37;5.03;;;4.57;;
33381;SDS011;21342;48.786;9.166;2022-12-07T08:55:08;5.90;;;4.90;;
33381;SDS011;21342;48.786;9.166;2022-12-07T08:57:37;6.90;;;5.80;;
33381;SDS011;21342;48.786;9.166;2022-12-07T09:00:06;5.70;;;5.10;;
33381;SDS011;21342;48.786;9.166;2022-12-07T09:02:34;9.20;;;4.93;;
33381;SDS011;21342;48.786;9.166;2022-12-07T09:05:02;6.57;;;5.70;;
33381;SDS011;21342;48.786;9.166;2022-12-07T09:07:32;7.97;;;5.43;;
33381;SDS011;21342;48.786;9.166;2022-12-07T09:10:00;5.70;;;5.20;;
33381;SDS011;21342;48.786;9.166;2022-12-07T09:12:28;5.80;;;4.67;;
33381;SDS011;21342;48.786;9.166;2022-12-07T09:14:55;5.00;;;4.40;;
33381;SDS011;21342;48.786;9.166;2022-12-07T09:17:23;5.60;;;4.97;;
33381;SDS011;21342;48.786;9.166;2022-12-07T09:19:50;5.20;;;4.70;;
33381;SDS011;21342;48.786;9.166;2022-12-07T09:22:17;6.03;;;4.57;;
33381;SDS011;21342;48.786;9.166;2022-12-07T09:24:46;5.90;;;4.40;;
33381;SDS011;21342;48.786;9.166;2022-12-07T09:27:14;4.73;;;3.63;;
33381;SDS011;21342;48.786;9.166;2022-12-07T09:29:42;4.27;;;3.87;;
33381;SDS011;21342;48.786;9.166;2022-12-07T09:32:10;5.53;;;4.00;;
33381;SDS011;21342;48.786;9.166;2022-12-07T09:34:38;4.50;;;4.10;;
33381;SDS011;21342;48.786;9.166;2022-12-07T09:37:05;5.93;;;4.50;;
33381;SDS011;21342;48.786;9.166;2022-12-07T09:39:33;7.97;;;5.33;;
33381;SDS011;21342;48.786;9.166;2022-12-07T09:42:03;7.87;;;4.97;;
33381;SDS011;21342;48.786;9.166;2022-12-07T09:44:32;7.20;;;4.50;;
33381;SDS011;21342;48.786;9.166;2022-12-07T09:47:01;5.13;;;4.63;;
33381;SDS011;21342;48.786;9.166;2022-12-07T09:49:29;6.17;;;4.93;;
33381;SDS011;21342;48.786;9.166;2022-12-07T09:51:59;4.40;;;4.00;;
33381;SDS011;21342;48.786;9.166;2022-12-07T09:54:29;4.60;;;4.17;;
33381;SDS011;21342;48.786;9.166;2022-12-07T09:56:58;4.10;;;3.63;;
33381;SDS011;21342;48.786;9.166;2022-12-07T09:59:27;5.30;;;3.53;;
33381;SDS011;21342;48.786;9.166;2022-12-07T10:01:55;4.70;;;4.27;;
33381;SDS011;21342;48.786;9.166;2022-12-07T10:04:42;6.00;;;5.10;;
33381;SDS011;21342;48.786;9.166;2022-12-07T10:07:11;7.47;;;4.60;;
33381;SDS011;21342;48.786;9.166;2022-12-07T10:09:39;4.03;;;3.63;;
33381;SDS011;21342;48.786;9.166;2022-12-07T10:12:07;3.73;;;3.40;;
33381;SDS011;21342;48.786;9.166;2022-12-07T10:14:38;5.40;;;4.50;;
33381;SDS011;21342;48.786;9.166;2022-12-07T10:17:29;4.30;;;3.90;;
33381;SDS011;21342;48.786;9.166;2022-12-07T10:20:12;4.27;;;3.50;;
33381;SDS011;21342;48.786;9.166;2022-12-07T10:22:59;4.80;;;4.10;;
33381;SDS011;21342;48.786;9.166;2022-12-07T10:25:30;4.30;;;3.90;;
33381;SDS011;21342;48.786;9.166;2022-12-07T10:28:08;4.60;;;4.10;;
33381;SDS011;21342;48.786;9.166;2022-12-07T10:30:52;4.07;;;3.67;;
33381;SDS011;21342;48.786;9.166;2022-12-07T10:33:28;4.67;;;3.50;;
33381;SDS011;21342;48.786;9.166;2022-12-07T10:36:01;4.63;;;4.03;;
33381;SDS011;21342;48.786;9.166;2022-12-07T10:38:44;4.63;;;4.23;;
33381;SDS011;21342;48.786;9.166;2022-12-07T10:41:13;5.30;;;3.50;;
33381;SDS011;21342;48.786;9.166;2022-12-07T10:43:51;4.00;;;3.53;;
33381;SDS011;21342;48.786;9.166;2022-12-07T10:55:38;5.20;;;3.57;;
33381;SDS011;21342;48.786;9.166;2022-12-07T11:01:12;3.77;;;3.43;;
33381;SDS011;21342;48.786;9.166;2022-12-07T11:06:43;3.60;;;3.30;;
33381;SDS011;21342;48.786;9.166;2022-12-07T11:09:29;4.53;;;3.37;;
33381;SDS011;21342;48.786;9.166;2022-12-07T11:12:24;4.13;;;3.50;;
33381;SDS011;21342;48.786;9.166;2022-12-07T11:15:01;8.60;;;5.03;;
33381;SDS011;21342;48.786;9.166;2022-12-07T11:17:36;4.00;;;3.60;;
33381;SDS011;21342;48.786;9.166;2022-12-07T11:20:14;3.53;;;3.20;;
33381;SDS011;21342;48.786;9.166;2022-12-07T11:22:57;5.93;;;4.00;;
33381;SDS011;21342;48.786;9.166;2022-12-07T11:25:34;4.00;;;3.70;;
33381;SDS011;21342;48.786;9.166;2022-12-07T11:28:13;3.80;;;3.40;;
33381;SDS011;21342;48.786;9.166;2022-12-07T11:30:52;8.17;;;3.53;;
33381;SDS011;21342;48.786;9.166;2022-12-07T11:33:29;3.30;;;2.90;;
33381;SDS011;21342;48.786;9.166;2022-12-07T11:36:06;2.97;;;2.77;;
33381;SDS011;21342;48.786;9.166;2022-12-07T11:38:44;2.83;;;2.63;;
33381;SDS011;21342;48.786;9.166;2022-12-07T11:41:19;3.00;;;2.70;;
33381;SDS011;21342;48.786;9.166;2022-12-07T11:43:55;2.83;;;2.63;;
33381;SDS011;21342;48.786;9.166;2022-12-07T11:46:31;3.10;;;2.80;;
33381;SDS011;21342;48.786;9.166;2022-12-07T11:49:08;3.90;;;3.10;;
33381;SDS011;21342;48.786;9.166;2022-12-07T11:51:40;3.43;;;3.07;;
33381;SDS011;21342;48.786;9.166;2022-12-07T11:54:11;4.23;;;3.33;;
33381;SDS011;21342;48.786;9.166;2022-12-07T11:56:44;3.90;;;3.17;;
33381;SDS011;21342;48.786;9.166;2022-12-07T11:59:17;4.60;;;4.17;;
33381;SDS011;21342;48.786;9.166;2022-12-07T12:01:52;5.47;;;4.73;;
33381;SDS011;21342;48.786;9.166;2022-12-07T12:04:28;5.60;;;5.00;;
33381;SDS011;21342;48.786;9.166;2022-12-07T12:07:10;4.87;;;4.47;;
33381;SDS011;21342;48.786;9.166;2022-12-07T12:09:44;5.90;;;5.27;;
33381;SDS011;21342;48.786;9.166;2022-12-07T12:18:21;6.40;;;5.20;;
33381;SDS011;21342;48.786;9.166;2022-12-07T12:21:08;6.00;;;4.93;;
33381;SDS011;21342;48.786;9.166;2022-12-07T12:23:40;5.70;;;5.07;;
33381;SDS011;21342;48.786;9.166;2022-12-07T12:26:14;7.53;;;5.87;;
33381;SDS011;21342;48.786;9.166;2022-12-07T12:28:50;9.33;;;6.50;;
33381;SDS011;21342;48.786;9.166;2022-12-07T12:31:34;6.03;;;5.43;;
33381;SDS011;21342;48.786;9.166;2022-12-07T12:34:10;7.67;;;6.53;;
33381;SDS011;21342;48.786;9.166;2022-12-07T12:37:00;6.00;;;5.33;;
33381;SDS011;21342;48.786;9.166;2022-12-07T12:39:27;7.60;;;5.63;;
33381;SDS011;21342;48.786;9.166;2022-12-07T12:41:58;7.10;;;6.40;;
33381;SDS011;21342;48.786;9.166;2022-12-07T12:44:40;6.80;;;5.57;;
33381;SDS011;21342;48.786;9.166;2022-12-07T12:47:42;5.90;;;5.30;;
33381;SDS011;21342;48.786;9.166;2022-12-07T12:50:26;6.20;;;4.90;;
33381;SDS011;21342;48.786;9.166;2022-12-07T12:53:00;6.80;;;5.80;;
33381;SDS011;21342;48.786;9.166;2022-12-07T12:58:47;5.83;;;5.00;;
33381;SDS011;21342;48.786;9.166;2022-12-07T13:04:28;6.93;;;4.90;;
33381;SDS011;21342;48.786;9.166;2022-12-07T13:10:24;6.67;;;5.90;;
33381;SDS011;21342;48.786;9.166;2022-12-07T13:25:10;6.10;;;4.90;;
33381;SDS011;21342;48.786;9.166;2022-12-07T13:27:40;5.73;;;5.00;;
33381;SDS011;21342;48.786;9.166;2022-12-07T13:30:13;4.93;;;4.13;;
33381;SDS011;21342;48.786;9.166;2022-12-07T13:32:42;5.13;;;4.70;;
33381;SDS011;21342;48.786;9.166;2022-12-07T13:35:30;4.90;;;4.40;;
33381;SDS011;21342;48.786;9.166;2022-12-07T13:38:01;5.70;;;4.97;;
33381;SDS011;21342;48.786;9.166;2022-12-07T13:40:31;6.23;;;5.50;;
33381;SDS011;21342;48.786;9.166;2022-12-07T13:42:59;5.90;;;5.30;;
33381;SDS011;21342;48.786;9.166;2022-12-07T13:45:29;4.90;;;4.50;;
33381;SDS011;21342;48.786;9.166;2022-12-07T13:48:19;4.97;;;4.47;;
33381;SDS011;21342;48.786;9.166;2022-12-07T13:50:54;5.40;;;4.90;;
33381;SDS011;21342;48.786;9.166;2022-12-07T13:53:23;7.17;;;4.80;;
33381;SDS011;21342;48.786;9.166;2022-12-07T13:55:54;7.53;;;5.33;;
33381;SDS011;21342;48.786;9.166;2022-12-07T13:58:27;5.43;;;4.90;;
33381;SDS011;21342;48.786;9.166;2022-12-07T14:00:57;6.43;;;5.07;;
33381;SDS011;21342;48.786;9.166;2022-12-07T14:03:30;8.00;;;5.37;;
33381;SDS011;21342;48.786;9.166;2022-12-07T14:06:16;6.77;;;5.30;;
33381;SDS011;21342;48.786;9.166;2022-12-07T14:08:47;6.07;;;5.23;;
33381;SDS011;21342;48.786;9.166;2022-12-07T14:11:17;5.93;;;4.60;;
33381;SDS011;21342;48.786;9.166;2022-12-07T14:16:32;6.13;;;5.10;;
33381;SDS011;21342;48.786;9.166;2022-12-07T14:19:02;6.07;;;5.47;;
33381;SDS011;21342;48.786;9.166;2022-12-07T14:21:31;6.10;;;5.50;;
33381;SDS011;21342;48.786;9.166;2022-12-07T14:24:07;8.87;;;5.87;;
33381;SDS011;21342;48.786;9.166;2022-12-07T14:26:39;12.00;;;6.20;;
33381;SDS011;21342;48.786;9.166;2022-12-07T14:29:19;6.23;;;5.60;;
33381;SDS011;21342;48.786;9.166;2022-12-07T14:31:56;6.40;;;5.27;;
33381;SDS011;21342;48.786;9.166;2022-12-07T14:34:25;9.60;;;5.70;;
33381;SDS011;21342;48.786;9.166;2022-12-07T14:36:52;7.27;;;5.63;;
33381;SDS011;21342;48.786;9.166;2022-12-07T14:39:20;7.50;;;5.43;;
33381;SDS011;21342;48.786;9.166;2022-12-07T14:41:49;6.77;;;6.10;;
33381;SDS011;21342;48.786;9.166;2022-12-07T14:44:20;7.97;;;7.17;;
33381;SDS011;21342;48.786;9.166;2022-12-07T14:46:48;6.97;;;6.27;;
33381;SDS011;21342;48.786;9.166;2022-12-07T14:49:16;8.70;;;7.60;;
33381;SDS011;21342;48.786;9.166;2022-12-07T14:51:45;7.53;;;5.50;;
33381;SDS011;21342;48.786;9.166;2022-12-07T14:54:15;6.80;;;6.13;;
33381;SDS011;21342;48.786;9.166;2022-12-07T14:56:44;7.17;;;6.10;;
33381;SDS011;21342;48.786;9.166;2022-12-07T14:59:16;5.60;;;5.10;;
33381;SDS011;21342;48.786;9.166;2022-12-07T15:01:44;7.30;;;6.23;;
33381;SDS011;21342;48.786;9.166;2022-12-07T15:04:11;6.87;;;5.70;;
33381;SDS011;21342;48.786;9.166;2022-12-07T15:06:39;6.43;;;5.73;;
33381;SDS011;21342;48.786;9.166;2022-12-07T15:09:09;6.93;;;5.80;;
33381;SDS011;21342;48.786;9.166;2022-12-07T15:11:37;7.70;;;5.90;;
33381;SDS011;21342;48.786;9.166;2022-12-07T15:14:04;7.77;;;6.67;;
33381;SDS011;21342;48.786;9.166;2022-12-07T15:16:38;7.10;;;5.60;;
33381;SDS011;21342;48.786;9.166;2022-12-07T15:19:09;7.17;;;6.53;;
33381;SDS011;21342;48.786;9.166;2022-12-07T15:21:39;8.50;;;6.00;;
33381;SDS011;21342;48.786;9.166;2022-12-07T15:24:08;6.77;;;5.83;;
33381;SDS011;21342;48.786;9.166;2022-12-07T15:26:36;8.73;;;5.37;;
33381;SDS011;21342;48.786;9.166;2022-12-07T15:29:04;5.33;;;4.83;;
33381;SDS011;21342;48.786;9.166;2022-12-07T15:31:32;6.07;;;5.57;;
33381;SDS011;21342;48.786;9.166;2022-12-07T15:34:01;5.90;;;5.30;;
33381;SDS011;21342;48.786;9.166;2022-12-07T15:36:30;7.20;;;5.70;;
33381;SDS011;21342;48.786;9.166;2022-12-07T15:38:58;7.70;;;5.70;;
33381;SDS011;21342;48.786;9.166;2022-12-07T15:41:26;6.37;;;5.53;;
33381;SDS011;21342;48.786;9.166;2022-12-07T15:43:54;9.90;;;5.57;;
33381;SDS011;21342;48.786;9.166;2022-12-07T15:46:39;5.60;;;5.10;;
33381;SDS011;21342;48.786;9.166;2022-12-07T15:49:10;8.40;;;6.20;;
33381;SDS011;21342;48.786;9.166;2022-12-07T15:51:39;7.47;;;6.13;;
33381;SDS011;21342;48.786;9.166;2022-12-07T15:54:10;7.03;;;6.27;;
33381;SDS011;21342;48.786;9.166;2022-12-07T15:56:40;11.03;;;5.70;;
33381;SDS011;21342;48.786;9.166;2022-12-07T15:59:07;8.03;;;6.80;;
33381;SDS011;21342;48.786;9.166;2022-12-07T16:01:34;8.93;;;6.70;;